sensor_id;sensor_type;location;lat;lon;timestamp;P1;durP1;ratioP1;P2;durP2;ratioP2
80926;SDS011;70385;44.538;18.532;2023-12-20T00:01:45;518.22;;;261.55;;
80926;SDS011;70385;44.538;18.532;2023-12-20T00:04:11;509.45;;;254.27;;
80926;SDS011;70385;44.538;18.532;2023-12-20T00:06:37;515.42;;;258.10;;
80926;SDS011;70385;44.538;18.532;2023-12-20T00:09:04;487.17;;;243.20;;
80926;SDS011;70385;44.538;18.532;2023-12-20T00:11:32;509.23;;;254.57;;
80926;SDS011;70385;44.538;18.532;2023-12-20T00:13:59;500.63;;;251.25;;
80926;SDS011;70385;44.538;18.532;2023-12-20T00:16:25;528.25;;;270.75;;
80926;SDS011;70385;44.538;18.532;2023-12-20T00:18:51;536.95;;;269.52;;
80926;SDS011;70385;44.538;18.532;2023-12-20T00:21:18;536.45;;;267.55;;
80926;SDS011;70385;44.538;18.532;2023-12-20T00:23:46;532.53;;;267.10;;
80926;SDS011;70385;44.538;18.532;2023-12-20T00:26:12;530.70;;;260.35;;
80926;SDS011;70385;44.538;18.532;2023-12-20T00:28:38;501.83;;;242.40;;
80926;SDS011;70385;44.538;18.532;2023-12-20T00:31:03;530.42;;;264.17;;
80926;SDS011;70385;44.538;18.532;2023-12-20T00:33:29;549.80;;;274.30;;
80926;SDS011;70385;44.538;18.532;2023-12-20T00:35:55;542.38;;;270.90;;
80926;SDS011;70385;44.538;18.532;2023-12-20T00:38:22;523.42;;;260.20;;
80926;SDS011;70385;44.538;18.532;2023-12-20T00:40:48;517.13;;;253.45;;
80926;SDS011;70385;44.538;18.532;2023-12-20T00:43:15;498.48;;;246.68;;
80926;SDS011;70385;44.538;18.532;2023-12-20T00:45:41;496.83;;;247.82;;
80926;SDS011;70385;44.538;18.532;2023-12-20T00:48:08;492.30;;;241.15;;
80926;SDS011;70385;44.538;18.532;2023-12-20T00:50:34;485.35;;;237.57;;
80926;SDS011;70385;44.538;18.532;2023-12-20T00:53:00;476.23;;;234.80;;
80926;SDS011;70385;44.538;18.532;2023-12-20T00:55:26;479.33;;;238.93;;
80926;SDS011;70385;44.538;18.532;2023-12-20T00:57:52;491.65;;;246.63;;
80926;SDS011;70385;44.538;18.532;2023-12-20T01:00:18;496.60;;;244.23;;
80926;SDS011;70385;44.538;18.532;2023-12-20T01:02:47;470.55;;;231.52;;
80926;SDS011;70385;44.538;18.532;2023-12-20T01:05:16;460.88;;;229.00;;
80926;SDS011;70385;44.538;18.532;2023-12-20T01:07:45;436.70;;;207.70;;
80926;SDS011;70385;44.538;18.532;2023-12-20T01:10:11;452.58;;;225.60;;
80926;SDS011;70385;44.538;18.532;2023-12-20T01:12:37;460.70;;;227.07;;
80926;SDS011;70385;44.538;18.532;2023-12-20T01:15:03;439.77;;;219.23;;
80926;SDS011;70385;44.538;18.532;2023-12-20T01:17:29;459.70;;;223.48;;
80926;SDS011;70385;44.538;18.532;2023-12-20T01:19:57;435.50;;;218.00;;
80926;SDS011;70385;44.538;18.532;2023-12-20T01:22:23;445.95;;;216.57;;
80926;SDS011;70385;44.538;18.532;2023-12-20T01:24:49;430.17;;;210.65;;
80926;SDS011;70385;44.538;18.532;2023-12-20T01:27:15;442.25;;;215.82;;
80926;SDS011;70385;44.538;18.532;2023-12-20T01:29:40;418.35;;;209.88;;
80926;SDS011;70385;44.538;18.532;2023-12-20T01:32:06;472.15;;;231.60;;
80926;SDS011;70385;44.538;18.532;2023-12-20T01:34:32;441.35;;;218.07;;
80926;SDS011;70385;44.538;18.532;2023-12-20T01:36:58;432.08;;;207.80;;
80926;SDS011;70385;44.538;18.532;2023-12-20T01:39:25;414.50;;;197.65;;
80926;SDS011;70385;44.538;18.532;2023-12-20T01:41:51;453.42;;;222.55;;
80926;SDS011;70385;44.538;18.532;2023-12-20T01:44:17;465.25;;;218.50;;
80926;SDS011;70385;44.538;18.532;2023-12-20T01:46:45;445.08;;;215.88;;
80926;SDS011;70385;44.538;18.532;2023-12-20T01:49:11;452.08;;;222.55;;
80926;SDS011;70385;44.538;18.532;2023-12-20T01:51:38;451.30;;;213.73;;
80926;SDS011;70385;44.538;18.532;2023-12-20T01:54:04;423.13;;;201.32;;
80926;SDS011;70385;44.538;18.532;2023-12-20T01:56:30;444.15;;;207.07;;
80926;SDS011;70385;44.538;18.532;2023-12-20T01:58:57;448.08;;;215.77;;
80926;SDS011;70385;44.538;18.532;2023-12-20T02:01:24;431.10;;;207.93;;
80926;SDS011;70385;44.538;18.532;2023-12-20T02:03:50;439.80;;;207.15;;
80926;SDS011;70385;44.538;18.532;2023-12-20T02:06:17;424.20;;;205.27;;
80926;SDS011;70385;44.538;18.532;2023-12-20T02:08:43;417.38;;;203.52;;
80926;SDS011;70385;44.538;18.532;2023-12-20T02:11:10;411.13;;;189.82;;
80926;SDS011;70385;44.538;18.532;2023-12-20T02:13:36;416.20;;;198.43;;
80926;SDS011;70385;44.538;18.532;2023-12-20T02:16:01;402.85;;;192.68;;
80926;SDS011;70385;44.538;18.532;2023-12-20T02:18:28;400.27;;;189.88;;
80926;SDS011;70385;44.538;18.532;2023-12-20T02:20:54;406.15;;;190.10;;
80926;SDS011;70385;44.538;18.532;2023-12-20T02:23:21;415.33;;;193.88;;
80926;SDS011;70385;44.538;18.532;2023-12-20T02:25:47;398.65;;;190.57;;
80926;SDS011;70385;44.538;18.532;2023-12-20T02:28:13;420.27;;;194.52;;
80926;SDS011;70385;44.538;18.532;2023-12-20T02:30:40;415.77;;;199.10;;
80926;SDS011;70385;44.538;18.532;2023-12-20T02:33:07;400.67;;;184.93;;
80926;SDS011;70385;44.538;18.532;2023-12-20T02:35:37;407.58;;;189.57;;
80926;SDS011;70385;44.538;18.532;2023-12-20T02:38:02;407.38;;;186.45;;
80926;SDS011;70385;44.538;18.532;2023-12-20T02:40:31;389.52;;;183.80;;
80926;SDS011;70385;44.538;18.532;2023-12-20T02:42:57;393.48;;;187.13;;
80926;SDS011;70385;44.538;18.532;2023-12-20T02:45:23;400.95;;;187.40;;
80926;SDS011;70385;44.538;18.532;2023-12-20T02:47:49;410.35;;;192.95;;
80926;SDS011;70385;44.538;18.532;2023-12-20T02:50:15;400.05;;;190.32;;
80926;SDS011;70385;44.538;18.532;2023-12-20T02:52:44;400.27;;;184.90;;
80926;SDS011;70385;44.538;18.532;2023-12-20T02:55:11;417.60;;;195.85;;
80926;SDS011;70385;44.538;18.532;2023-12-20T02:57:36;387.52;;;177.80;;
80926;SDS011;70385;44.538;18.532;2023-12-20T03:00:07;391.83;;;184.77;;
80926;SDS011;70385;44.538;18.532;2023-12-20T03:02:35;382.85;;;174.25;;
80926;SDS011;70385;44.538;18.532;2023-12-20T03:05:02;377.23;;;178.57;;
80926;SDS011;70385;44.538;18.532;2023-12-20T03:07:28;391.13;;;180.00;;
80926;SDS011;70385;44.538;18.532;2023-12-20T03:09:54;360.70;;;170.38;;
80926;SDS011;70385;44.538;18.532;2023-12-20T03:12:20;364.77;;;168.68;;
80926;SDS011;70385;44.538;18.532;2023-12-20T03:14:46;358.23;;;167.40;;
80926;SDS011;70385;44.538;18.532;2023-12-20T03:17:13;359.83;;;167.82;;
80926;SDS011;70385;44.538;18.532;2023-12-20T03:19:41;378.92;;;178.25;;
80926;SDS011;70385;44.538;18.532;2023-12-20T03:22:07;373.05;;;170.18;;
80926;SDS011;70385;44.538;18.532;2023-12-20T03:24:33;410.08;;;184.68;;
80926;SDS011;70385;44.538;18.532;2023-12-20T03:26:59;371.48;;;174.40;;
80926;SDS011;70385;44.538;18.532;2023-12-20T03:29:25;365.13;;;173.38;;
80926;SDS011;70385;44.538;18.532;2023-12-20T03:31:50;384.65;;;177.82;;
80926;SDS011;70385;44.538;18.532;2023-12-20T03:34:16;362.75;;;166.88;;
80926;SDS011;70385;44.538;18.532;2023-12-20T03:36:42;370.55;;;172.02;;
80926;SDS011;70385;44.538;18.532;2023-12-20T03:39:09;358.70;;;165.82;;
80926;SDS011;70385;44.538;18.532;2023-12-20T03:41:35;345.92;;;158.38;;
80926;SDS011;70385;44.538;18.532;2023-12-20T03:44:01;336.35;;;155.77;;
80926;SDS011;70385;44.538;18.532;2023-12-20T03:46:27;351.58;;;162.82;;
80926;SDS011;70385;44.538;18.532;2023-12-20T03:48:52;351.73;;;167.35;;
80926;SDS011;70385;44.538;18.532;2023-12-20T03:51:18;392.05;;;177.40;;
80926;SDS011;70385;44.538;18.532;2023-12-20T03:53:44;379.20;;;172.50;;
80926;SDS011;70385;44.538;18.532;2023-12-20T03:56:10;358.38;;;171.57;;
80926;SDS011;70385;44.538;18.532;2023-12-20T03:58:36;386.02;;;174.73;;
80926;SDS011;70385;44.538;18.532;2023-12-20T04:01:02;371.92;;;166.00;;
80926;SDS011;70385;44.538;18.532;2023-12-20T04:03:28;350.90;;;162.18;;
80926;SDS011;70385;44.538;18.532;2023-12-20T04:05:53;364.92;;;174.90;;
80926;SDS011;70385;44.538;18.532;2023-12-20T04:08:20;392.63;;;182.60;;
80926;SDS011;70385;44.538;18.532;2023-12-20T04:10:45;391.25;;;173.07;;
80926;SDS011;70385;44.538;18.532;2023-12-20T04:13:11;365.27;;;172.27;;
80926;SDS011;70385;44.538;18.532;2023-12-20T04:15:39;380.73;;;179.80;;
80926;SDS011;70385;44.538;18.532;2023-12-20T04:18:06;378.95;;;176.35;;
80926;SDS011;70385;44.538;18.532;2023-12-20T04:20:32;374.45;;;172.23;;
80926;SDS011;70385;44.538;18.532;2023-12-20T04:22:57;380.60;;;173.95;;
80926;SDS011;70385;44.538;18.532;2023-12-20T04:25:24;362.90;;;167.32;;
80926;SDS011;70385;44.538;18.532;2023-12-20T04:27:50;355.15;;;169.23;;
80926;SDS011;70385;44.538;18.532;2023-12-20T04:30:16;393.00;;;181.60;;
80926;SDS011;70385;44.538;18.532;2023-12-20T04:32:42;381.02;;;172.95;;
80926;SDS011;70385;44.538;18.532;2023-12-20T04:35:08;372.98;;;174.40;;
80926;SDS011;70385;44.538;18.532;2023-12-20T04:37:34;374.52;;;175.52;;
80926;SDS011;70385;44.538;18.532;2023-12-20T04:40:00;361.35;;;173.88;;
80926;SDS011;70385;44.538;18.532;2023-12-20T04:42:27;384.27;;;177.43;;
80926;SDS011;70385;44.538;18.532;2023-12-20T04:44:53;352.85;;;165.35;;
80926;SDS011;70385;44.538;18.532;2023-12-20T04:47:20;355.63;;;170.27;;
80926;SDS011;70385;44.538;18.532;2023-12-20T04:49:46;359.55;;;168.75;;
80926;SDS011;70385;44.538;18.532;2023-12-20T04:52:12;383.55;;;179.73;;
80926;SDS011;70385;44.538;18.532;2023-12-20T04:54:37;397.52;;;178.23;;
80926;SDS011;70385;44.538;18.532;2023-12-20T04:57:03;381.77;;;174.05;;
80926;SDS011;70385;44.538;18.532;2023-12-20T04:59:29;382.40;;;172.00;;
80926;SDS011;70385;44.538;18.532;2023-12-20T05:01:55;371.90;;;171.23;;
80926;SDS011;70385;44.538;18.532;2023-12-20T05:04:21;355.10;;;162.82;;
80926;SDS011;70385;44.538;18.532;2023-12-20T05:06:47;355.20;;;170.52;;
80926;SDS011;70385;44.538;18.532;2023-12-20T05:09:12;358.30;;;169.52;;
80926;SDS011;70385;44.538;18.532;2023-12-20T05:11:38;351.30;;;162.52;;
80926;SDS011;70385;44.538;18.532;2023-12-20T05:14:04;364.15;;;171.48;;
80926;SDS011;70385;44.538;18.532;2023-12-20T05:16:30;339.70;;;154.60;;
80926;SDS011;70385;44.538;18.532;2023-12-20T05:18:56;332.05;;;153.10;;
80926;SDS011;70385;44.538;18.532;2023-12-20T05:21:22;346.83;;;159.70;;
80926;SDS011;70385;44.538;18.532;2023-12-20T05:23:47;329.48;;;148.23;;
80926;SDS011;70385;44.538;18.532;2023-12-20T05:26:15;318.80;;;150.93;;
80926;SDS011;70385;44.538;18.532;2023-12-20T05:28:40;342.50;;;157.70;;
80926;SDS011;70385;44.538;18.532;2023-12-20T05:31:06;329.02;;;156.52;;
80926;SDS011;70385;44.538;18.532;2023-12-20T05:33:32;352.25;;;157.05;;
80926;SDS011;70385;44.538;18.532;2023-12-20T05:35:59;342.42;;;157.40;;
80926;SDS011;70385;44.538;18.532;2023-12-20T05:38:26;322.25;;;148.25;;
80926;SDS011;70385;44.538;18.532;2023-12-20T05:40:52;318.35;;;147.25;;
80926;SDS011;70385;44.538;18.532;2023-12-20T05:43:18;314.77;;;144.20;;
80926;SDS011;70385;44.538;18.532;2023-12-20T05:45:45;318.88;;;145.48;;
80926;SDS011;70385;44.538;18.532;2023-12-20T05:48:11;316.10;;;144.18;;
80926;SDS011;70385;44.538;18.532;2023-12-20T05:50:37;314.90;;;142.85;;
80926;SDS011;70385;44.538;18.532;2023-12-20T05:53:04;338.73;;;149.02;;
80926;SDS011;70385;44.538;18.532;2023-12-20T05:55:30;328.23;;;150.48;;
80926;SDS011;70385;44.538;18.532;2023-12-20T05:57:56;329.13;;;144.77;;
80926;SDS011;70385;44.538;18.532;2023-12-20T06:00:21;354.88;;;155.68;;
80926;SDS011;70385;44.538;18.532;2023-12-20T06:02:49;352.15;;;153.65;;
80926;SDS011;70385;44.538;18.532;2023-12-20T06:05:15;370.70;;;164.40;;
80926;SDS011;70385;44.538;18.532;2023-12-20T06:07:44;354.70;;;160.43;;
80926;SDS011;70385;44.538;18.532;2023-12-20T06:10:12;339.42;;;151.10;;
80926;SDS011;70385;44.538;18.532;2023-12-20T06:12:39;350.33;;;155.80;;
80926;SDS011;70385;44.538;18.532;2023-12-20T06:15:05;349.98;;;152.85;;
80926;SDS011;70385;44.538;18.532;2023-12-20T06:17:31;348.38;;;162.05;;
80926;SDS011;70385;44.538;18.532;2023-12-20T06:19:57;352.95;;;157.20;;
80926;SDS011;70385;44.538;18.532;2023-12-20T06:22:23;346.27;;;155.32;;
80926;SDS011;70385;44.538;18.532;2023-12-20T06:24:50;455.75;;;206.32;;
80926;SDS011;70385;44.538;18.532;2023-12-20T06:27:16;456.83;;;209.98;;
80926;SDS011;70385;44.538;18.532;2023-12-20T06:29:42;425.27;;;186.55;;
80926;SDS011;70385;44.538;18.532;2023-12-20T06:32:10;435.35;;;198.05;;
80926;SDS011;70385;44.538;18.532;2023-12-20T06:34:35;409.90;;;179.80;;
80926;SDS011;70385;44.538;18.532;2023-12-20T06:37:03;402.48;;;182.85;;
80926;SDS011;70385;44.538;18.532;2023-12-20T06:39:29;399.00;;;179.35;;
80926;SDS011;70385;44.538;18.532;2023-12-20T06:41:56;378.63;;;175.25;;
80926;SDS011;70385;44.538;18.532;2023-12-20T06:44:21;395.20;;;181.05;;
80926;SDS011;70385;44.538;18.532;2023-12-20T06:46:47;387.17;;;184.98;;
80926;SDS011;70385;44.538;18.532;2023-12-20T06:49:13;410.05;;;186.32;;
80926;SDS011;70385;44.538;18.532;2023-12-20T06:51:39;392.88;;;182.27;;
80926;SDS011;70385;44.538;18.532;2023-12-20T06:54:05;391.85;;;185.68;;
80926;SDS011;70385;44.538;18.532;2023-12-20T06:56:31;395.33;;;193.50;;
80926;SDS011;70385;44.538;18.532;2023-12-20T06:58:58;416.05;;;191.35;;
80926;SDS011;70385;44.538;18.532;2023-12-20T07:01:23;398.73;;;190.55;;
80926;SDS011;70385;44.538;18.532;2023-12-20T07:03:49;384.33;;;178.77;;
80926;SDS011;70385;44.538;18.532;2023-12-20T07:06:15;396.17;;;182.32;;
80926;SDS011;70385;44.538;18.532;2023-12-20T07:08:42;396.50;;;181.57;;
80926;SDS011;70385;44.538;18.532;2023-12-20T07:11:08;398.17;;;190.30;;
80926;SDS011;70385;44.538;18.532;2023-12-20T07:13:37;413.80;;;189.38;;
80926;SDS011;70385;44.538;18.532;2023-12-20T07:16:04;390.13;;;180.32;;
80926;SDS011;70385;44.538;18.532;2023-12-20T07:18:33;385.25;;;172.25;;
80926;SDS011;70385;44.538;18.532;2023-12-20T07:21:03;401.88;;;185.27;;
80926;SDS011;70385;44.538;18.532;2023-12-20T07:23:29;404.70;;;185.13;;
80926;SDS011;70385;44.538;18.532;2023-12-20T07:25:55;404.58;;;188.10;;
80926;SDS011;70385;44.538;18.532;2023-12-20T07:28:24;408.13;;;181.65;;
80926;SDS011;70385;44.538;18.532;2023-12-20T07:30:50;432.98;;;205.18;;
80926;SDS011;70385;44.538;18.532;2023-12-20T07:33:16;447.02;;;208.13;;
80926;SDS011;70385;44.538;18.532;2023-12-20T07:35:44;446.20;;;213.07;;
80926;SDS011;70385;44.538;18.532;2023-12-20T07:38:12;420.77;;;208.68;;
80926;SDS011;70385;44.538;18.532;2023-12-20T07:40:37;420.08;;;204.90;;
80926;SDS011;70385;44.538;18.532;2023-12-20T07:43:06;400.10;;;200.45;;
80926;SDS011;70385;44.538;18.532;2023-12-20T07:45:32;406.75;;;197.32;;
80926;SDS011;70385;44.538;18.532;2023-12-20T07:47:59;458.95;;;227.57;;
80926;SDS011;70385;44.538;18.532;2023-12-20T07:50:25;546.85;;;270.50;;
80926;SDS011;70385;44.538;18.532;2023-12-20T07:52:53;549.17;;;267.95;;
80926;SDS011;70385;44.538;18.532;2023-12-20T07:55:19;554.30;;;274.10;;
80926;SDS011;70385;44.538;18.532;2023-12-20T07:57:46;550.75;;;260.67;;
80926;SDS011;70385;44.538;18.532;2023-12-20T08:00:12;497.98;;;235.95;;
80926;SDS011;70385;44.538;18.532;2023-12-20T08:02:39;456.38;;;217.93;;
80926;SDS011;70385;44.538;18.532;2023-12-20T08:05:04;442.67;;;206.73;;
80926;SDS011;70385;44.538;18.532;2023-12-20T08:07:31;402.23;;;185.27;;
80926;SDS011;70385;44.538;18.532;2023-12-20T08:09:58;372.30;;;181.02;;
80926;SDS011;70385;44.538;18.532;2023-12-20T08:12:24;373.48;;;172.55;;
80926;SDS011;70385;44.538;18.532;2023-12-20T08:14:53;332.23;;;158.82;;
80926;SDS011;70385;44.538;18.532;2023-12-20T08:17:22;331.75;;;152.15;;
80926;SDS011;70385;44.538;18.532;2023-12-20T08:19:48;319.77;;;156.93;;
80926;SDS011;70385;44.538;18.532;2023-12-20T08:22:16;313.65;;;149.02;;
80926;SDS011;70385;44.538;18.532;2023-12-20T08:24:41;322.00;;;151.13;;
80926;SDS011;70385;44.538;18.532;2023-12-20T08:27:09;349.50;;;159.07;;
80926;SDS011;70385;44.538;18.532;2023-12-20T08:29:35;362.92;;;163.77;;
80926;SDS011;70385;44.538;18.532;2023-12-20T08:32:01;315.15;;;152.15;;
80926;SDS011;70385;44.538;18.532;2023-12-20T08:34:27;321.70;;;155.57;;
80926;SDS011;70385;44.538;18.532;2023-12-20T08:36:53;308.23;;;145.27;;
80926;SDS011;70385;44.538;18.532;2023-12-20T08:39:19;298.30;;;144.20;;
80926;SDS011;70385;44.538;18.532;2023-12-20T08:41:45;316.27;;;149.15;;
80926;SDS011;70385;44.538;18.532;2023-12-20T08:44:12;307.35;;;149.77;;
80926;SDS011;70385;44.538;18.532;2023-12-20T08:46:38;314.95;;;148.50;;
80926;SDS011;70385;44.538;18.532;2023-12-20T08:49:04;303.55;;;144.60;;
80926;SDS011;70385;44.538;18.532;2023-12-20T08:51:30;299.65;;;146.50;;
80926;SDS011;70385;44.538;18.532;2023-12-20T08:53:57;308.85;;;145.02;;
80926;SDS011;70385;44.538;18.532;2023-12-20T08:56:23;327.90;;;148.63;;
80926;SDS011;70385;44.538;18.532;2023-12-20T08:58:49;316.35;;;148.48;;
80926;SDS011;70385;44.538;18.532;2023-12-20T09:01:15;306.90;;;146.95;;
80926;SDS011;70385;44.538;18.532;2023-12-20T09:03:40;303.15;;;146.45;;
80926;SDS011;70385;44.538;18.532;2023-12-20T09:06:06;270.23;;;137.25;;
80926;SDS011;70385;44.538;18.532;2023-12-20T09:08:32;285.63;;;136.52;;
80926;SDS011;70385;44.538;18.532;2023-12-20T09:10:59;288.08;;;129.63;;
80926;SDS011;70385;44.538;18.532;2023-12-20T09:13:33;290.05;;;142.60;;
80926;SDS011;70385;44.538;18.532;2023-12-20T09:16:00;272.10;;;133.20;;
80926;SDS011;70385;44.538;18.532;2023-12-20T09:18:26;243.27;;;122.18;;
80926;SDS011;70385;44.538;18.532;2023-12-20T09:20:52;219.25;;;115.90;;
80926;SDS011;70385;44.538;18.532;2023-12-20T09:23:18;223.43;;;113.80;;
80926;SDS011;70385;44.538;18.532;2023-12-20T09:25:44;217.48;;;113.55;;
80926;SDS011;70385;44.538;18.532;2023-12-20T09:28:11;237.68;;;121.65;;
80926;SDS011;70385;44.538;18.532;2023-12-20T09:30:37;235.93;;;119.32;;
80926;SDS011;70385;44.538;18.532;2023-12-20T09:33:06;217.57;;;111.50;;
80926;SDS011;70385;44.538;18.532;2023-12-20T09:35:34;225.13;;;116.28;;
80926;SDS011;70385;44.538;18.532;2023-12-20T09:38:00;202.85;;;106.82;;
80926;SDS011;70385;44.538;18.532;2023-12-20T09:40:26;204.23;;;100.95;;
80926;SDS011;70385;44.538;18.532;2023-12-20T09:43:09;178.50;;;96.78;;
80926;SDS011;70385;44.538;18.532;2023-12-20T09:45:39;172.15;;;88.53;;
80926;SDS011;70385;44.538;18.532;2023-12-20T09:51:27;135.77;;;72.95;;
80926;SDS011;70385;44.538;18.532;2023-12-20T09:54:00;144.23;;;72.30;;
80926;SDS011;70385;44.538;18.532;2023-12-20T09:56:29;137.38;;;69.22;;
80926;SDS011;70385;44.538;18.532;2023-12-20T10:01:59;132.82;;;67.60;;
80926;SDS011;70385;44.538;18.532;2023-12-20T10:04:28;132.70;;;65.88;;
80926;SDS011;70385;44.538;18.532;2023-12-20T10:07:01;125.63;;;62.25;;
80926;SDS011;70385;44.538;18.532;2023-12-20T10:09:31;126.15;;;63.15;;
80926;SDS011;70385;44.538;18.532;2023-12-20T10:11:58;115.10;;;57.30;;
80926;SDS011;70385;44.538;18.532;2023-12-20T10:14:23;112.10;;;57.35;;
80926;SDS011;70385;44.538;18.532;2023-12-20T10:16:50;108.65;;;52.28;;
80926;SDS011;70385;44.538;18.532;2023-12-20T10:19:19;101.40;;;50.20;;
80926;SDS011;70385;44.538;18.532;2023-12-20T10:21:45;103.47;;;50.53;;
80926;SDS011;70385;44.538;18.532;2023-12-20T10:24:16;102.68;;;49.25;;
80926;SDS011;70385;44.538;18.532;2023-12-20T10:26:46;96.88;;;49.47;;
80926;SDS011;70385;44.538;18.532;2023-12-20T10:29:12;102.72;;;49.58;;
80926;SDS011;70385;44.538;18.532;2023-12-20T10:31:39;96.25;;;49.40;;
80926;SDS011;70385;44.538;18.532;2023-12-20T10:34:05;103.30;;;48.22;;
80926;SDS011;70385;44.538;18.532;2023-12-20T10:36:32;106.05;;;47.78;;
80926;SDS011;70385;44.538;18.532;2023-12-20T10:38:59;95.25;;;46.67;;
80926;SDS011;70385;44.538;18.532;2023-12-20T10:41:27;90.82;;;44.88;;
80926;SDS011;70385;44.538;18.532;2023-12-20T10:43:58;85.18;;;42.97;;
80926;SDS011;70385;44.538;18.532;2023-12-20T10:46:29;95.82;;;44.60;;
80926;SDS011;70385;44.538;18.532;2023-12-20T10:48:57;92.68;;;44.95;;
80926;SDS011;70385;44.538;18.532;2023-12-20T10:51:23;90.72;;;44.83;;
80926;SDS011;70385;44.538;18.532;2023-12-20T10:53:52;86.82;;;44.13;;
80926;SDS011;70385;44.538;18.532;2023-12-20T10:56:20;91.03;;;44.53;;
80926;SDS011;70385;44.538;18.532;2023-12-20T10:58:49;87.40;;;41.80;;
80926;SDS011;70385;44.538;18.532;2023-12-20T11:01:16;79.28;;;40.63;;
80926;SDS011;70385;44.538;18.532;2023-12-20T11:03:53;82.80;;;44.13;;
80926;SDS011;70385;44.538;18.532;2023-12-20T11:06:54;90.55;;;43.58;;
80926;SDS011;70385;44.538;18.532;2023-12-20T11:14:48;84.55;;;42.22;;
80926;SDS011;70385;44.538;18.532;2023-12-20T11:17:16;81.68;;;40.22;;
80926;SDS011;70385;44.538;18.532;2023-12-20T11:22:27;87.30;;;40.13;;
80926;SDS011;70385;44.538;18.532;2023-12-20T11:24:58;87.90;;;39.10;;
80926;SDS011;70385;44.538;18.532;2023-12-20T11:27:29;83.57;;;41.13;;
80926;SDS011;70385;44.538;18.532;2023-12-20T11:29:56;84.13;;;41.40;;
80926;SDS011;70385;44.538;18.532;2023-12-20T11:34:55;120.80;;;52.25;;
80926;SDS011;70385;44.538;18.532;2023-12-20T11:37:22;129.23;;;56.13;;
80926;SDS011;70385;44.538;18.532;2023-12-20T11:39:55;134.32;;;63.00;;
80926;SDS011;70385;44.538;18.532;2023-12-20T11:42:23;140.25;;;59.70;;
80926;SDS011;70385;44.538;18.532;2023-12-20T11:44:49;103.55;;;53.70;;
80926;SDS011;70385;44.538;18.532;2023-12-20T11:47:15;105.38;;;50.60;;
80926;SDS011;70385;44.538;18.532;2023-12-20T11:49:44;98.85;;;47.28;;
80926;SDS011;70385;44.538;18.532;2023-12-20T11:52:12;96.72;;;45.88;;
80926;SDS011;70385;44.538;18.532;2023-12-20T11:54:38;93.20;;;43.22;;
80926;SDS011;70385;44.538;18.532;2023-12-20T11:57:05;89.45;;;45.33;;
80926;SDS011;70385;44.538;18.532;2023-12-20T11:59:31;90.55;;;45.00;;
80926;SDS011;70385;44.538;18.532;2023-12-20T12:02:02;112.72;;;56.30;;
80926;SDS011;70385;44.538;18.532;2023-12-20T12:04:31;134.30;;;58.47;;
80926;SDS011;70385;44.538;18.532;2023-12-20T12:06:57;161.43;;;66.78;;
80926;SDS011;70385;44.538;18.532;2023-12-20T12:09:23;180.00;;;67.45;;
80926;SDS011;70385;44.538;18.532;2023-12-20T12:11:49;187.55;;;67.22;;
80926;SDS011;70385;44.538;18.532;2023-12-20T12:14:15;152.25;;;63.33;;
80926;SDS011;70385;44.538;18.532;2023-12-20T12:16:44;164.68;;;61.88;;
80926;SDS011;70385;44.538;18.532;2023-12-20T12:19:23;146.00;;;63.22;;
80926;SDS011;70385;44.538;18.532;2023-12-20T12:22:12;145.27;;;62.03;;
80926;SDS011;70385;44.538;18.532;2023-12-20T12:24:43;148.15;;;68.75;;
80926;SDS011;70385;44.538;18.532;2023-12-20T12:27:10;152.40;;;69.45;;
80926;SDS011;70385;44.538;18.532;2023-12-20T12:29:37;162.60;;;74.57;;
80926;SDS011;70385;44.538;18.532;2023-12-20T12:32:36;148.20;;;66.05;;
80926;SDS011;70385;44.538;18.532;2023-12-20T12:35:04;140.65;;;65.85;;
80926;SDS011;70385;44.538;18.532;2023-12-20T12:37:39;139.13;;;64.47;;
80926;SDS011;70385;44.538;18.532;2023-12-20T12:40:12;145.02;;;67.90;;
80926;SDS011;70385;44.538;18.532;2023-12-20T12:42:40;140.80;;;66.18;;
80926;SDS011;70385;44.538;18.532;2023-12-20T12:45:07;152.43;;;73.53;;
80926;SDS011;70385;44.538;18.532;2023-12-20T12:47:35;154.40;;;70.00;;
80926;SDS011;70385;44.538;18.532;2023-12-20T12:50:29;150.95;;;69.07;;
80926;SDS011;70385;44.538;18.532;2023-12-20T12:53:00;140.20;;;64.93;;
80926;SDS011;70385;44.538;18.532;2023-12-20T12:55:25;152.68;;;67.05;;
80926;SDS011;70385;44.538;18.532;2023-12-20T12:57:52;159.50;;;66.40;;
80926;SDS011;70385;44.538;18.532;2023-12-20T13:00:18;134.98;;;58.10;;
80926;SDS011;70385;44.538;18.532;2023-12-20T13:02:50;137.68;;;57.30;;
80926;SDS011;70385;44.538;18.532;2023-12-20T13:05:27;111.10;;;49.20;;
80926;SDS011;70385;44.538;18.532;2023-12-20T13:07:53;99.22;;;46.03;;
80926;SDS011;70385;44.538;18.532;2023-12-20T13:10:20;66.95;;;33.00;;
80926;SDS011;70385;44.538;18.532;2023-12-20T13:12:49;58.83;;;30.58;;
80926;SDS011;70385;44.538;18.532;2023-12-20T13:15:15;46.65;;;25.77;;
80926;SDS011;70385;44.538;18.532;2023-12-20T13:17:42;52.53;;;26.88;;
80926;SDS011;70385;44.538;18.532;2023-12-20T13:20:08;47.53;;;26.90;;
80926;SDS011;70385;44.538;18.532;2023-12-20T13:22:35;45.75;;;24.95;;
80926;SDS011;70385;44.538;18.532;2023-12-20T13:25:01;50.55;;;26.40;;
80926;SDS011;70385;44.538;18.532;2023-12-20T13:27:28;50.50;;;28.05;;
80926;SDS011;70385;44.538;18.532;2023-12-20T13:29:54;64.40;;;32.30;;
80926;SDS011;70385;44.538;18.532;2023-12-20T13:32:20;72.55;;;34.95;;
80926;SDS011;70385;44.538;18.532;2023-12-20T13:34:47;77.85;;;38.25;;
80926;SDS011;70385;44.538;18.532;2023-12-20T13:37:14;69.47;;;33.30;;
80926;SDS011;70385;44.538;18.532;2023-12-20T13:39:40;77.85;;;38.53;;
80926;SDS011;70385;44.538;18.532;2023-12-20T13:42:07;73.85;;;35.65;;
80926;SDS011;70385;44.538;18.532;2023-12-20T13:44:35;71.35;;;37.25;;
80926;SDS011;70385;44.538;18.532;2023-12-20T13:47:00;71.43;;;37.92;;
80926;SDS011;70385;44.538;18.532;2023-12-20T13:49:27;69.88;;;37.25;;
80926;SDS011;70385;44.538;18.532;2023-12-20T13:51:56;70.78;;;37.53;;
80926;SDS011;70385;44.538;18.532;2023-12-20T13:54:24;66.38;;;35.15;;
80926;SDS011;70385;44.538;18.532;2023-12-20T14:00:07;69.68;;;34.92;;
80926;SDS011;70385;44.538;18.532;2023-12-20T14:02:41;64.68;;;34.08;;
80926;SDS011;70385;44.538;18.532;2023-12-20T14:05:08;52.58;;;30.05;;
80926;SDS011;70385;44.538;18.532;2023-12-20T14:07:38;59.58;;;33.00;;
80926;SDS011;70385;44.538;18.532;2023-12-20T14:10:04;78.60;;;37.92;;
80926;SDS011;70385;44.538;18.532;2023-12-20T14:12:31;75.20;;;38.45;;